createdAt,value
2023-05-16T00:02:42.605Z,99798.33
2023-05-16T00:08:06.466Z,99801.17
2023-05-16T00:13:29.927Z,99805.55
2023-05-16T00:18:52.883Z,99807.69
2023-05-16T00:24:17.220Z,99817.45
2023-05-16T00:29:39.543Z,99808.39
2023-05-16T00:35:01.864Z,99798.62
2023-05-16T00:40:24.950Z,99816.03
2023-05-16T00:45:47.949Z,99818.31
2023-05-16T00:51:10.737Z,99812.94
2023-05-16T00:56:33.840Z,99810.39
2023-05-16T01:01:58.889Z,99812.64
2023-05-16T01:07:22.478Z,99820.16
2023-05-16T01:13:19.674Z,99832.91
2023-05-16T01:18:55.703Z,99837.55
2023-05-16T01:24:32.130Z,99832.47
2023-05-16T01:29:54.455Z,99842.22
2023-05-16T01:35:18.032Z,99854.12
2023-05-16T01:40:45.307Z,99846.05
2023-05-16T01:46:12.557Z,99851.43
2023-05-16T01:51:55.101Z,99855.96
2023-05-16T01:57:21.078Z,99864.85
2023-05-16T02:02:44.120Z,99871.63
2023-05-16T02:08:07.333Z,99860.88
2023-05-16T02:13:30.216Z,99862.86
2023-05-16T02:18:52.579Z,99874.45
2023-05-16T02:24:14.917Z,99881.66
2023-05-16T02:29:37.314Z,99895.95
2023-05-16T02:34:59.652Z,99889.17
2023-05-16T02:46:47.076Z,99917.14
2023-05-16T02:52:09.913Z,99925.48
2023-05-16T02:57:32.345Z,99930.44
2023-05-16T03:02:54.756Z,99929.59
2023-05-16T03:08:17.573Z,99947.91
2023-05-16T03:13:39.856Z,99950.94
2023-05-16T03:19:03.556Z,99958.40
2023-05-16T03:24:26.536Z,99963.03
2023-05-16T03:29:49.079Z,99976.47
2023-05-16T03:35:12.306Z,99960.34
2023-05-16T03:40:34.576Z,99996.97
2023-05-16T03:45:56.966Z,99986.11
2023-05-16T03:51:19.316Z,99994.91
2023-05-16T03:56:42.221Z,100007.08
2023-05-16T04:02:04.620Z,100004.39
2023-05-16T04:07:27.785Z,100006.09
2023-05-16T04:12:50.477Z,100010.23
2023-05-16T04:18:12.865Z,100012.50
2023-05-16T04:23:35.773Z,100008.61
2023-05-16T04:29:00.135Z,100046.56
2023-05-16T04:34:24.486Z,100051.94
2023-05-16T04:39:48.727Z,100064.56
2023-05-16T04:45:12.300Z,100079.28
2023-05-16T04:50:34.853Z,100086.50
2023-05-16T04:55:57.182Z,100094.70
2023-05-16T05:01:19.491Z,100101.18
2023-05-16T05:06:41.870Z,100127.41
2023-05-16T05:12:04.311Z,100116.12
2023-05-16T05:17:27.228Z,100130.59
2023-05-16T05:22:49.874Z,100152.72
2023-05-16T05:28:12.180Z,100167.62
2023-05-16T05:33:37.778Z,100186.63
2023-05-16T05:39:00.064Z,100185.98
2023-05-16T05:44:22.414Z,100198.92
2023-05-16T05:49:45.849Z,100217.86
2023-05-16T05:55:08.208Z,100205.94
2023-05-16T06:00:31.243Z,100212.34
2023-05-16T06:05:53.483Z,100223.81
2023-05-16T06:11:15.838Z,100209.05
2023-05-16T06:16:40.715Z,100207.66
2023-05-16T06:22:03.487Z,100226.95
2023-05-16T06:27:25.958Z,100229.75
2023-05-16T06:32:48.473Z,100234.89
2023-05-16T06:38:10.810Z,100254.03
2023-05-16T06:43:33.093Z,100274.33
2023-05-16T06:48:55.467Z,100283.95
2023-05-16T06:54:17.776Z,100288.92
2023-05-16T06:59:40.231Z,100290.73
2023-05-16T07:05:02.982Z,100308.88
2023-05-16T07:10:26.196Z,100313.02
2023-05-16T07:15:48.539Z,100329.61
2023-05-16T07:21:11.908Z,100345.42
2023-05-16T07:26:34.794Z,100348.14
2023-05-16T07:31:57.589Z,100359.49
2023-05-16T07:37:21.112Z,100374.52
2023-05-16T07:42:44.861Z,100379.78
2023-05-16T07:48:07.578Z,100383.07
2023-05-16T07:53:29.909Z,100398.27
2023-05-16T07:58:52.608Z,100438.19
2023-05-16T08:04:15.611Z,100448.09
2023-05-16T08:09:38.127Z,100444.69
2023-05-16T08:15:01.412Z,100449.09
2023-05-16T08:20:24.359Z,100453.94
2023-05-16T08:25:46.848Z,100462.19
2023-05-16T08:31:09.202Z,100451.41
2023-05-16T08:36:32.429Z,100449.72
2023-05-16T08:41:54.814Z,100432.14
2023-05-16T08:47:26.333Z,100435.87
2023-05-16T08:52:51.718Z,100464.02
2023-05-16T08:58:15.007Z,100446.65
2023-05-16T09:03:37.530Z,100457.59
2023-05-16T09:09:01.332Z,100451.45
2023-05-16T09:14:23.974Z,100469.48
2023-05-16T09:19:53.751Z,100464.70
2023-05-16T09:25:28.659Z,100454.19
2023-05-16T09:30:51.122Z,100448.80
2023-05-16T09:36:17.333Z,100459.88
2023-05-16T09:41:41.919Z,100466.67
2023-05-16T09:47:05.892Z,100471.06
2023-05-16T09:52:29.281Z,100476.52
2023-05-16T09:57:52.240Z,100497.32
2023-05-16T10:03:16.435Z,100494.13
2023-05-16T10:08:44.682Z,100488.33
2023-05-16T10:14:09.405Z,100480.06
2023-05-16T10:19:34.154Z,100469.88
2023-05-16T10:25:04.258Z,100511.49
2023-05-16T10:30:28.394Z,100524.69
2023-05-16T10:35:51.619Z,100526.20
2023-05-16T10:41:15.120Z,100536.27
2023-05-16T10:46:39.423Z,100517.22
2023-05-16T10:52:20.318Z,100529.73
2023-05-16T10:57:44.531Z,100544.96
2023-05-16T11:03:12.069Z,100524.13
2023-05-16T11:08:34.567Z,100538.51
2023-05-16T11:14:10.947Z,100539.12
2023-05-16T11:25:34.959Z,100543.21
2023-05-16T11:31:04.344Z,100544.36
2023-05-16T11:36:28.923Z,100555.88
2023-05-16T11:41:53.186Z,100576.43
2023-05-16T11:47:16.527Z,100569.50
2023-05-16T11:52:39.030Z,100582.58
2023-05-16T11:58:05.186Z,100581.61
2023-05-16T12:03:29.251Z,100591.30
2023-05-16T12:08:57.774Z,100587.18
2023-05-16T12:14:21.860Z,100596.80
2023-05-16T12:19:46.013Z,100608.69
2023-05-16T12:25:28.341Z,100623.22
2023-05-16T12:30:53.546Z,100636.96
2023-05-16T12:36:19.970Z,100620.41
2023-05-16T12:41:45.360Z,100621.14
2023-05-16T12:47:11.175Z,100627.30
2023-05-16T12:52:38.132Z,100632.98
2023-05-16T12:58:02.843Z,100630.84
2023-05-16T13:03:26.599Z,100630.97
2023-05-16T13:08:49.437Z,100639.30
2023-05-16T13:14:12.257Z,100637.97
2023-05-16T13:19:35.337Z,100634.80
2023-05-16T13:24:57.640Z,100639.83
2023-05-16T13:30:20.524Z,100654.58
2023-05-16T13:35:42.863Z,100658.88
2023-05-16T13:41:06.553Z,100663.21
2023-05-16T13:46:29.593Z,100682.73
2023-05-16T13:51:52.454Z,100672.11
2023-05-16T13:57:15.181Z,100679.33
2023-05-16T14:02:38.247Z,100685.28
2023-05-16T14:08:01.401Z,100684.22
2023-05-16T14:13:24.491Z,100675.43
2023-05-16T14:18:47.498Z,100662.09
2023-05-16T14:24:12.322Z,100673.75
2023-05-16T14:29:38.809Z,100660.55
2023-05-16T14:35:01.224Z,100674.14
2023-05-16T14:40:24.793Z,100683.58
2023-05-16T14:45:51.984Z,100677.54
2023-05-16T14:51:14.829Z,100675.67
2023-05-16T14:56:37.751Z,100686.59
2023-05-16T15:02:00.259Z,100680.80
2023-05-16T15:07:23.325Z,100683.66
2023-05-16T15:12:46.058Z,100680.80
2023-05-16T15:18:09.387Z,100682.09
2023-05-16T15:23:31.964Z,100687.20
2023-05-16T15:28:55.940Z,100696.80
2023-05-16T15:34:18.296Z,100704.75
2023-05-16T15:39:40.664Z,100696.05
2023-05-16T15:45:03.370Z,100702.73
2023-05-16T15:50:27.392Z,100703.50
2023-05-16T15:55:49.744Z,100691.27
2023-05-16T16:01:12.789Z,100710.61
2023-05-16T16:06:35.755Z,100718.37
2023-05-16T16:11:58.354Z,100738.84
2023-05-16T16:17:21.517Z,100737.45
2023-05-16T16:22:44.469Z,100732.80
2023-05-16T16:28:08.000Z,100743.39
2023-05-16T16:33:31.617Z,100739.55
2023-05-16T16:38:54.432Z,100737.71
2023-05-16T16:44:17.343Z,100744.84
2023-05-16T16:49:41.156Z,100742.13
2023-05-16T16:55:04.552Z,100734.72
2023-05-16T17:00:28.479Z,100746.25
2023-05-16T17:05:51.366Z,100753.62
2023-05-16T17:11:14.904Z,100762.74
2023-05-16T17:16:38.720Z,100769.84
2023-05-16T17:22:01.477Z,100777.66
2023-05-16T17:27:24.760Z,100786.83
2023-05-16T17:32:47.964Z,100793.05
2023-05-16T17:38:11.837Z,100804.39
2023-05-16T17:43:35.951Z,100806.77
2023-05-16T17:48:58.616Z,100813.59
2023-05-16T17:54:21.414Z,100817.39
2023-05-16T17:59:45.487Z,100820.78
2023-05-16T18:05:08.145Z,100826.03
2023-05-16T18:10:40.184Z,100825.77
2023-05-16T18:15:55.294Z,100827.63
2023-05-16T18:21:17.979Z,100844.20
2023-05-16T18:26:41.046Z,100854.25
2023-05-16T18:32:03.944Z,100856.58
2023-05-16T18:37:27.233Z,100857.10
2023-05-16T18:42:50.383Z,100864.69
2023-05-16T18:48:13.402Z,100878.77
2023-05-16T18:53:36.937Z,100882.92
2023-05-16T18:58:59.745Z,100895.75
2023-05-16T19:04:22.814Z,100903.23
2023-05-16T19:09:47.329Z,100910.45
2023-05-16T19:15:10.051Z,100923.06
2023-05-16T19:20:32.457Z,100920.50
2023-05-16T19:25:54.920Z,100913.62
2023-05-16T19:31:18.368Z,100913.27
2023-05-16T19:36:41.041Z,100919.86
2023-05-16T19:42:07.359Z,100922.41
2023-05-16T19:47:28.688Z,100930.98
2023-05-16T19:52:51.740Z,100931.31
2023-05-16T19:58:14.632Z,100940.98
2023-05-16T20:03:37.174Z,100944.66
2023-05-16T20:08:59.632Z,100942.94
2023-05-16T20:14:21.958Z,100947.01
2023-05-16T20:24:59.639Z,100948.97
2023-05-16T20:30:23.056Z,100940.74
2023-05-16T20:35:45.431Z,100946.34
2023-05-16T20:41:07.833Z,100940.22
2023-05-16T20:46:30.182Z,100935.55
2023-05-16T20:51:53.306Z,100943.73
2023-05-16T20:57:17.160Z,100948.50
2023-05-16T21:02:39.884Z,100944.84
2023-05-16T21:08:02.536Z,100947.73
2023-05-16T21:13:25.439Z,100946.88
2023-05-16T21:18:48.947Z,100956.30
2023-05-16T21:24:11.723Z,100955.44
2023-05-16T21:29:34.294Z,100958.70
2023-05-16T21:34:56.651Z,100956.33
2023-05-16T21:40:21.711Z,100956.33
2023-05-16T21:45:44.028Z,100962.73
2023-05-16T21:51:06.334Z,100963.72
2023-05-16T21:56:28.780Z,100954.58
2023-05-16T22:01:51.367Z,100961.67
2023-05-16T22:07:13.828Z,100964.41
2023-05-16T22:12:36.412Z,100959.77
2023-05-16T22:17:58.814Z,100957.88
2023-05-16T22:23:21.221Z,100975.77
2023-05-16T22:28:43.529Z,100977.30
2023-05-16T22:34:05.990Z,100974.27
2023-05-16T22:39:28.319Z,100978.81
2023-05-16T22:44:50.845Z,100985.35
2023-05-16T22:50:13.425Z,100993.09
2023-05-16T22:55:36.488Z,100988.80
2023-05-16T23:00:59.970Z,100998.69
2023-05-16T23:06:22.440Z,101000.94
2023-05-16T23:11:45.298Z,100994.81
2023-05-16T23:17:07.641Z,101000.19
2023-05-16T23:22:29.983Z,100999.78
2023-05-16T23:27:52.338Z,100999.86
2023-05-16T23:33:14.801Z,101003.33
2023-05-16T23:38:37.411Z,100997.17
2023-05-16T23:43:59.695Z,100995.69
2023-05-16T23:49:22.006Z,100997.92
2023-05-16T23:54:48.085Z,101000.61
